createdAt,value
2023-01-27T00:00:37.984Z,53.49
2023-01-27T00:03:04.911Z,53.78
2023-01-27T00:05:31.769Z,53.74
2023-01-27T00:08:00.466Z,53.60
2023-01-27T00:10:27.593Z,53.54
2023-01-27T00:13:12.991Z,53.61
2023-01-27T00:15:40.376Z,53.51
2023-01-27T00:18:07.242Z,53.41
2023-01-27T00:20:52.497Z,53.80
2023-01-27T00:23:40.344Z,53.41
2023-01-27T00:26:09.925Z,53.36
2023-01-27T00:28:39.596Z,53.26
2023-01-27T00:31:08.695Z,53.69
2023-01-27T00:33:35.549Z,53.33
2023-01-27T00:36:05.020Z,53.95
2023-01-27T00:38:35.296Z,53.68
2023-01-27T00:41:20.195Z,53.70
2023-01-27T00:43:50.558Z,53.85
2023-01-27T00:46:18.123Z,53.42
2023-01-27T00:48:45.335Z,53.62
2023-01-27T00:51:13.778Z,53.30
2023-01-27T00:53:41.443Z,53.41
2023-01-27T00:56:08.669Z,53.55
2023-01-27T00:58:35.920Z,53.78
2023-01-27T01:01:05.553Z,53.54
2023-01-27T01:03:34.179Z,53.52
2023-01-27T01:06:06.808Z,53.54
2023-01-27T01:08:35.496Z,53.93
2023-01-27T01:11:03.821Z,53.71
2023-01-27T01:13:30.751Z,53.47
2023-01-27T01:15:57.582Z,53.72
2023-01-27T01:18:24.559Z,53.96
2023-01-27T01:20:51.309Z,53.97
2023-01-27T01:23:18.245Z,54.00
2023-01-27T01:25:55.600Z,53.91
2023-01-27T01:28:22.661Z,53.99
2023-01-27T01:30:49.596Z,53.91
2023-01-27T01:33:17.574Z,53.87
2023-01-27T01:35:44.544Z,53.95
2023-01-27T01:38:11.329Z,53.71
2023-01-27T01:40:44.619Z,54.05
2023-01-27T01:43:16.907Z,53.82
2023-01-27T01:45:55.441Z,53.77
2023-01-27T01:48:34.651Z,54.02
2023-01-27T01:51:31.701Z,54.18
2023-01-27T01:54:05.579Z,53.87
2023-01-27T01:56:43.647Z,54.06
2023-01-27T01:59:15.757Z,53.67
2023-01-27T02:01:42.561Z,54.00
2023-01-27T02:04:13.513Z,54.08
2023-01-27T02:07:02.728Z,54.16
2023-01-27T02:09:29.695Z,54.09
2023-01-27T02:11:57.896Z,54.06
2023-01-27T02:14:24.932Z,54.08
2023-01-27T02:16:53.209Z,53.92
2023-01-27T02:19:30.514Z,53.72
2023-01-27T02:21:58.189Z,54.01
2023-01-27T02:24:32.592Z,53.82
2023-01-27T02:27:00.444Z,54.34
2023-01-27T02:29:28.856Z,53.96
2023-01-27T02:31:55.842Z,53.82
2023-01-27T02:34:27.689Z,53.71
2023-01-27T02:36:58.625Z,54.04
2023-01-27T02:39:29.519Z,54.22
2023-01-27T02:41:58.167Z,53.84
2023-01-27T02:44:26.040Z,54.23
2023-01-27T02:46:52.968Z,53.83
2023-01-27T02:49:19.760Z,53.95
2023-01-27T02:51:46.519Z,53.74
2023-01-27T02:54:13.298Z,53.96
2023-01-27T02:56:41.565Z,54.08
2023-01-27T02:59:09.971Z,54.21
2023-01-27T03:01:39.612Z,53.68
2023-01-27T03:04:08.048Z,54.13
2023-01-27T03:06:34.808Z,53.87
2023-01-27T03:09:01.506Z,53.92
2023-01-27T03:11:46.912Z,54.13
2023-01-27T03:14:13.823Z,54.15
2023-01-27T03:16:59.229Z,53.96
2023-01-27T03:19:26.877Z,54.31
2023-01-27T03:21:54.203Z,54.03
2023-01-27T03:24:22.797Z,53.92
2023-01-27T03:26:51.094Z,54.05
2023-01-27T03:29:40.569Z,54.01
2023-01-27T03:32:07.359Z,53.99
2023-01-27T03:34:34.527Z,54.19
2023-01-27T03:37:32.712Z,54.29
2023-01-27T03:40:18.117Z,54.21
2023-01-27T03:43:03.444Z,54.49
2023-01-27T03:45:48.710Z,54.26
2023-01-27T03:48:18.464Z,54.41
2023-01-27T03:50:45.124Z,54.53
2023-01-27T03:53:11.875Z,54.31
2023-01-27T03:55:39.188Z,54.18
2023-01-27T03:58:20.354Z,54.29
2023-01-27T04:00:49.858Z,54.55
2023-01-27T04:03:35.285Z,54.32
2023-01-27T04:06:25.654Z,54.28
2023-01-27T04:08:52.588Z,54.62
2023-01-27T04:11:37.873Z,54.55
2023-01-27T04:14:05.927Z,54.33
2023-01-27T04:16:33.072Z,54.67
2023-01-27T04:19:00.270Z,54.48
2023-01-27T04:21:26.965Z,54.43
2023-01-27T04:23:53.967Z,54.42
2023-01-27T04:26:20.857Z,54.44
2023-01-27T04:28:48.490Z,54.85
2023-01-27T04:31:15.792Z,54.77
2023-01-27T04:33:43.583Z,54.53
2023-01-27T04:36:12.672Z,54.82
2023-01-27T04:38:39.415Z,54.55
2023-01-27T04:41:06.295Z,54.77
2023-01-27T04:43:33.226Z,54.81
2023-01-27T04:46:00.282Z,54.82
2023-01-27T04:48:27.092Z,54.45
2023-01-27T04:50:53.805Z,54.87
2023-01-27T04:53:20.588Z,54.72
2023-01-27T04:55:48.800Z,54.93
2023-01-27T04:58:20.152Z,55.03
2023-01-27T05:00:47.249Z,54.99
2023-01-27T05:03:14.546Z,54.78
2023-01-27T05:05:41.861Z,54.85
2023-01-27T05:08:10.175Z,55.00
2023-01-27T05:10:37.158Z,55.09
2023-01-27T05:13:03.922Z,54.96
2023-01-27T05:15:31.237Z,55.08
2023-01-27T05:17:57.959Z,54.93
2023-01-27T05:20:24.767Z,55.04
2023-01-27T05:22:52.251Z,55.16
2023-01-27T05:25:19.093Z,54.86
2023-01-27T05:27:51.024Z,54.68
2023-01-27T05:30:23.608Z,54.75
2023-01-27T05:32:50.903Z,55.06
2023-01-27T05:35:18.127Z,55.04
2023-01-27T05:37:44.920Z,54.88
2023-01-27T05:40:12.355Z,54.74
2023-01-27T05:42:39.159Z,54.77
2023-01-27T05:45:06.866Z,55.01
2023-01-27T05:47:33.608Z,54.66
2023-01-27T05:50:00.278Z,54.55
2023-01-27T05:52:27.087Z,54.87
2023-01-27T05:54:53.759Z,54.57
2023-01-27T05:57:20.520Z,55.01
2023-01-27T05:59:47.229Z,54.92
2023-01-27T06:02:15.581Z,54.62
2023-01-27T06:04:42.454Z,54.56
2023-01-27T06:07:09.442Z,54.79
2023-01-27T06:09:38.395Z,54.76
2023-01-27T06:12:05.295Z,55.14
2023-01-27T06:14:32.039Z,55.06
2023-01-27T06:17:00.904Z,54.58
2023-01-27T06:19:27.691Z,54.63
2023-01-27T06:21:54.429Z,54.77
2023-01-27T06:24:21.251Z,54.78
2023-01-27T06:26:49.003Z,54.82
2023-01-27T06:29:15.836Z,54.86
2023-01-27T06:31:42.661Z,54.68
2023-01-27T06:34:09.509Z,54.63
2023-01-27T06:36:37.147Z,55.06
2023-01-27T06:39:04.068Z,54.64
2023-01-27T06:41:30.779Z,55.10
2023-01-27T06:43:57.902Z,54.80
2023-01-27T06:46:24.716Z,55.05
2023-01-27T06:48:51.511Z,54.47
2023-01-27T06:51:18.981Z,54.57
2023-01-27T06:53:45.941Z,54.90
2023-01-27T06:56:12.766Z,54.75
2023-01-27T06:58:39.822Z,54.38
2023-01-27T07:01:07.303Z,54.57
2023-01-27T07:03:36.993Z,54.28
2023-01-27T07:32:52.582Z,58.21
2023-01-27T08:05:43.236Z,60.15
2023-01-27T08:08:20.901Z,60.10
2023-01-27T08:13:43.100Z,60.54
2023-01-27T08:16:12.479Z,60.08
2023-01-27T08:18:39.074Z,59.99
2023-01-27T08:21:06.890Z,60.10
2023-01-27T08:23:33.774Z,59.92
2023-01-27T08:26:01.706Z,60.05
2023-01-27T08:31:24.031Z,59.75
2023-01-27T08:33:51.959Z,59.74
2023-01-27T08:36:19.868Z,59.43
2023-01-27T08:38:46.676Z,59.21
2023-01-27T08:41:14.357Z,59.35
2023-01-27T08:43:41.428Z,59.36
2023-01-27T08:46:09.002Z,59.45
2023-01-27T08:48:39.875Z,59.17
2023-01-27T08:51:07.561Z,59.38
2023-01-27T08:53:37.745Z,59.19
2023-01-27T08:56:09.437Z,58.63
2023-01-27T08:58:45.011Z,58.88
2023-01-27T09:01:23.259Z,59.05
2023-01-27T09:03:55.631Z,59.26
2023-01-27T09:09:27.228Z,58.92
2023-01-27T09:11:55.332Z,58.84
2023-01-27T09:14:22.324Z,58.42
2023-01-27T09:16:48.907Z,58.24
2023-01-27T09:19:16.103Z,58.05
2023-01-27T09:21:42.746Z,57.60
2023-01-27T09:24:12.552Z,57.55
2023-01-27T09:26:43.958Z,57.64
2023-01-27T09:29:11.263Z,57.04
2023-01-27T09:31:38.102Z,57.82
2023-01-27T09:34:05.315Z,57.97
2023-01-27T09:36:32.666Z,58.59
2023-01-27T09:39:00.964Z,58.38
2023-01-27T09:41:27.742Z,58.17
2023-01-27T09:44:13.559Z,58.33
2023-01-27T09:46:50.232Z,58.80
2023-01-27T09:49:35.521Z,58.91
2023-01-27T09:52:05.256Z,58.86
2023-01-27T09:54:38.803Z,59.24
2023-01-27T09:57:15.517Z,59.02
2023-01-27T09:59:59.122Z,59.56
2023-01-27T10:02:46.515Z,59.57
2023-01-27T10:05:13.453Z,59.57
2023-01-27T10:07:40.271Z,59.85
2023-01-27T10:10:07.094Z,60.08
2023-01-27T10:12:33.990Z,59.74
2023-01-27T10:15:06.790Z,59.77
2023-01-27T10:17:52.402Z,59.82
2023-01-27T10:20:39.697Z,59.59
2023-01-27T10:23:10.114Z,59.79
2023-01-27T10:25:45.973Z,60.12
2023-01-27T10:28:21.572Z,60.30
2023-01-27T10:31:01.279Z,59.71
2023-01-27T10:33:52.310Z,59.94
2023-01-27T10:36:27.413Z,59.76
2023-01-27T10:39:27.045Z,59.93
2023-01-27T10:42:03.939Z,59.99
2023-01-27T10:44:43.382Z,60.13
2023-01-27T10:47:26.826Z,59.75
2023-01-27T10:49:57.505Z,59.78
2023-01-27T10:52:30.190Z,59.61
2023-01-27T10:55:12.315Z,59.42
2023-01-27T10:57:54.209Z,58.93
2023-01-27T11:01:01.661Z,59.19
2023-01-27T11:03:41.393Z,58.85
2023-01-27T11:06:13.581Z,58.69
2023-01-27T11:08:43.292Z,58.12
2023-01-27T11:11:29.291Z,57.67
2023-01-27T11:14:09.785Z,57.70
2023-01-27T11:16:39.198Z,57.46
2023-01-27T11:19:17.180Z,57.30
2023-01-27T11:21:43.969Z,57.44
2023-01-27T11:24:28.784Z,57.32
2023-01-27T11:27:01.310Z,57.06
2023-01-27T11:29:36.743Z,56.55
2023-01-27T11:32:43.539Z,56.16
2023-01-27T11:35:11.876Z,55.66
2023-01-27T11:37:44.734Z,55.29
2023-01-27T11:40:36.089Z,55.23
2023-01-27T11:43:03.986Z,54.96
2023-01-27T11:45:34.107Z,54.54
2023-01-27T11:48:02.483Z,54.75
2023-01-27T11:50:32.335Z,54.81
2023-01-27T11:53:11.242Z,55.42
2023-01-27T11:55:40.871Z,55.73
2023-01-27T11:58:14.971Z,55.89
2023-01-27T12:00:48.367Z,55.59
2023-01-27T12:03:22.214Z,55.42
2023-01-27T12:05:56.140Z,55.14
2023-01-27T12:08:46.653Z,55.25
2023-01-27T12:11:24.543Z,55.11
2023-01-27T12:13:57.545Z,54.48
2023-01-27T12:16:27.739Z,54.17
2023-01-27T12:19:01.228Z,54.37
2023-01-27T12:21:37.964Z,54.90
2023-01-27T12:24:07.387Z,54.65
2023-01-27T12:26:37.444Z,54.67
2023-01-27T12:29:07.423Z,55.18
2023-01-27T12:31:47.398Z,54.86
2023-01-27T12:34:26.345Z,55.14
2023-01-27T12:36:53.520Z,54.89
2023-01-27T12:39:30.403Z,55.42
2023-01-27T12:41:57.487Z,55.44
2023-01-27T12:44:29.919Z,55.61
2023-01-27T12:47:03.404Z,55.45
2023-01-27T12:49:36.211Z,54.96
2023-01-27T12:52:05.102Z,55.71
2023-01-27T12:54:33.319Z,55.87
2023-01-27T12:57:06.530Z,56.01
2023-01-27T12:59:33.644Z,55.81
2023-01-27T13:02:24.667Z,55.47
2023-01-27T13:04:54.785Z,55.46
2023-01-27T13:07:39.406Z,55.43
2023-01-27T13:10:20.065Z,55.23
2023-01-27T13:12:51.992Z,55.02
2023-01-27T13:15:21.556Z,55.23
2023-01-27T13:17:56.270Z,54.85
2023-01-27T13:20:26.537Z,55.32
2023-01-27T13:23:06.233Z,55.48
2023-01-27T13:25:43.061Z,55.09
2023-01-27T13:28:15.761Z,55.24
2023-01-27T13:30:47.033Z,55.78
2023-01-27T13:33:52.544Z,55.77
2023-01-27T13:36:29.934Z,56.08
2023-01-27T13:39:33.967Z,55.95
2023-01-27T13:42:16.341Z,56.24
2023-01-27T13:44:46.676Z,56.29
2023-01-27T13:47:20.448Z,56.11
2023-01-27T13:49:53.456Z,55.84
2023-01-27T13:52:20.243Z,56.17
2023-01-27T13:54:46.948Z,56.67
2023-01-27T13:57:25.310Z,56.30
2023-01-27T13:59:57.911Z,56.41
2023-01-27T14:02:33.983Z,55.73
2023-01-27T14:05:20.324Z,55.90
2023-01-27T14:08:01.449Z,56.14
2023-01-27T14:10:47.700Z,55.40
2023-01-27T14:13:26.582Z,55.56
2023-01-27T14:16:02.616Z,55.32
2023-01-27T14:18:40.121Z,55.61
2023-01-27T14:21:10.326Z,55.15
2023-01-27T14:23:47.151Z,55.52
2023-01-27T14:26:35.754Z,55.49
2023-01-27T14:29:21.440Z,55.46
2023-01-27T14:32:01.710Z,55.39
2023-01-27T14:34:36.466Z,55.77
2023-01-27T14:37:12.507Z,55.68
2023-01-27T14:39:48.425Z,55.92
2023-01-27T14:42:50.917Z,56.17
2023-01-27T14:45:28.540Z,56.50
2023-01-27T14:48:22.099Z,56.63
2023-01-27T14:50:58.199Z,56.37
2023-01-27T14:53:47.695Z,56.99
2023-01-27T14:56:46.926Z,57.11
2023-01-27T14:59:50.278Z,57.17
2023-01-27T15:02:35.970Z,57.39
2023-01-27T15:05:08.950Z,57.33
2023-01-27T15:07:59.260Z,57.41
2023-01-27T15:10:30.987Z,56.87
2023-01-27T15:13:23.500Z,56.57
2023-01-27T15:16:18.737Z,56.94
2023-01-27T15:18:48.580Z,57.16
2023-01-27T15:21:27.578Z,57.41
2023-01-27T15:24:12.752Z,57.48
2023-01-27T15:26:40.280Z,58.46
2023-01-27T15:29:09.248Z,58.79
2023-01-27T15:31:36.282Z,58.73
2023-01-27T15:34:02.991Z,58.65
2023-01-27T15:36:32.673Z,58.82
2023-01-27T15:39:11.829Z,59.15
2023-01-27T15:41:53.883Z,59.31
2023-01-27T15:44:40.999Z,59.56
2023-01-27T15:47:12.010Z,59.37
2023-01-27T15:49:42.509Z,59.42
2023-01-27T15:52:19.777Z,59.43
2023-01-27T15:54:50.930Z,59.50
2023-01-27T15:57:28.948Z,59.41
2023-01-27T16:00:04.275Z,59.40
2023-01-27T16:02:45.323Z,59.81
2023-01-27T16:05:46.060Z,60.01
2023-01-27T16:08:15.967Z,59.84
2023-01-27T16:10:43.424Z,60.13
2023-01-27T16:13:28.846Z,60.26
2023-01-27T16:16:17.446Z,60.40
2023-01-27T16:19:01.186Z,59.88
2023-01-27T16:21:37.254Z,60.70
2023-01-27T16:24:24.606Z,60.57
2023-01-27T16:27:04.212Z,60.68
2023-01-27T16:29:59.643Z,60.51
2023-01-27T16:32:35.993Z,60.58
2023-01-27T16:35:05.169Z,60.91
2023-01-27T16:37:38.651Z,60.51
2023-01-27T16:40:14.175Z,60.93
2023-01-27T16:42:47.561Z,60.86
2023-01-27T16:45:26.965Z,60.18
2023-01-27T16:47:58.944Z,60.12
2023-01-27T16:50:36.279Z,60.32
2023-01-27T16:53:04.985Z,60.07
2023-01-27T16:55:31.777Z,60.23
2023-01-27T16:57:59.831Z,60.42
2023-01-27T17:00:29.594Z,60.18
2023-01-27T17:02:59.447Z,60.61
2023-01-27T17:05:26.743Z,60.57
2023-01-27T17:08:18.007Z,60.45
2023-01-27T17:10:52.515Z,60.15
2023-01-27T17:13:31.981Z,60.27
2023-01-27T17:15:59.864Z,60.01
2023-01-27T17:18:26.953Z,60.03
2023-01-27T17:20:54.392Z,60.02
2023-01-27T17:23:42.268Z,59.87
2023-01-27T17:26:16.756Z,59.68
2023-01-27T17:28:46.026Z,59.19
2023-01-27T17:31:18.525Z,58.92
2023-01-27T17:33:50.272Z,58.92
2023-01-27T17:36:17.771Z,58.23
2023-01-27T17:38:49.483Z,58.20
2023-01-27T17:41:30.417Z,58.13
2023-01-27T17:44:01.388Z,58.02
2023-01-27T17:46:35.145Z,57.58
2023-01-27T17:49:07.136Z,57.42
2023-01-27T17:51:40.549Z,57.13
2023-01-27T17:54:19.527Z,57.21
2023-01-27T17:56:46.415Z,56.62
2023-01-27T17:59:20.465Z,56.52
2023-01-27T18:01:49.701Z,56.45
2023-01-27T18:04:16.655Z,56.26
2023-01-27T18:06:43.575Z,56.28
2023-01-27T18:09:18.754Z,55.55
2023-01-27T18:11:56.793Z,55.50
2023-01-27T18:14:24.260Z,55.88
2023-01-27T18:17:00.522Z,55.47
2023-01-27T18:19:27.807Z,55.30
2023-01-27T18:22:12.534Z,55.58
2023-01-27T18:24:40.323Z,55.33
2023-01-27T18:27:49.376Z,54.99
2023-01-27T18:30:19.155Z,54.59
2023-01-27T18:32:48.704Z,54.89
2023-01-27T18:35:28.661Z,54.97
2023-01-27T18:38:23.710Z,54.79
2023-01-27T18:40:50.463Z,54.21
2023-01-27T18:43:17.272Z,54.09
2023-01-27T18:45:44.526Z,53.82
2023-01-27T18:48:16.456Z,53.67
2023-01-27T18:50:45.987Z,53.34
2023-01-27T18:53:18.709Z,53.61
2023-01-27T18:55:45.915Z,53.08
2023-01-27T18:58:17.863Z,53.05
2023-01-27T19:00:52.735Z,52.87
2023-01-27T19:03:25.017Z,52.92
2023-01-27T19:05:52.343Z,52.82
2023-01-27T19:08:21.659Z,52.82
2023-01-27T19:10:49.453Z,52.83
2023-01-27T19:13:16.840Z,52.76
2023-01-27T19:15:50.722Z,52.71
2023-01-27T19:18:32.411Z,53.02
2023-01-27T19:20:59.333Z,52.63
2023-01-27T19:23:26.126Z,52.72
2023-01-27T19:25:54.517Z,52.67
2023-01-27T19:28:27.889Z,52.58
2023-01-27T19:30:54.653Z,52.61
2023-01-27T19:33:23.224Z,52.75
2023-01-27T19:36:03.211Z,52.77
2023-01-27T19:38:30.414Z,52.54
2023-01-27T19:40:57.239Z,52.58
2023-01-27T19:43:24.089Z,53.19
2023-01-27T19:45:52.598Z,52.91
2023-01-27T19:48:24.862Z,53.23
2023-01-27T19:50:52.730Z,53.20
2023-01-27T19:53:20.531Z,53.21
2023-01-27T19:55:47.806Z,53.19
2023-01-27T19:58:23.354Z,52.86
2023-01-27T20:00:50.943Z,52.85
2023-01-27T20:03:17.854Z,53.23
2023-01-27T20:05:45.146Z,53.26
2023-01-27T20:08:15.571Z,53.15
2023-01-27T20:11:20.168Z,53.32
2023-01-27T20:13:47.205Z,53.46
2023-01-27T20:16:14.197Z,53.67
2023-01-27T20:18:41.106Z,53.56
2023-01-27T20:21:12.297Z,53.22
2023-01-27T20:23:39.901Z,53.55
2023-01-27T20:26:11.749Z,53.73
2023-01-27T20:28:38.780Z,53.98
2023-01-27T20:31:10.447Z,54.07
2023-01-27T20:33:37.319Z,54.18
2023-01-27T20:36:10.917Z,54.31
2023-01-27T20:38:37.885Z,54.12
2023-01-27T20:41:12.356Z,54.48
2023-01-27T20:43:39.246Z,54.47
2023-01-27T20:46:10.958Z,54.62
2023-01-27T20:48:37.988Z,54.43
2023-01-27T20:51:07.463Z,54.77
2023-01-27T20:53:37.116Z,54.83
2023-01-27T20:56:04.344Z,54.51
2023-01-27T20:58:31.641Z,54.44
2023-01-27T21:01:11.394Z,54.83
2023-01-27T21:03:39.153Z,54.61
2023-01-27T21:06:07.255Z,54.54
2023-01-27T21:08:34.609Z,54.32
2023-01-27T21:11:03.115Z,54.54
2023-01-27T21:13:30.373Z,54.20
2023-01-27T21:15:57.211Z,54.42
2023-01-27T21:18:27.150Z,54.41
2023-01-27T21:20:55.437Z,54.52
2023-01-27T21:23:23.492Z,54.42
2023-01-27T21:25:50.995Z,54.42
2023-01-27T21:28:18.496Z,54.46
2023-01-27T21:30:45.709Z,53.98
2023-01-27T21:33:12.943Z,54.13
2023-01-27T21:35:39.781Z,54.31
2023-01-27T21:38:06.575Z,54.51
2023-01-27T21:40:34.749Z,53.94
2023-01-27T21:43:20.048Z,53.91
2023-01-27T21:45:46.818Z,54.01
2023-01-27T21:48:15.056Z,54.12
2023-01-27T21:50:41.924Z,54.06
2023-01-27T21:53:10.650Z,54.01
2023-01-27T21:55:38.785Z,54.24
2023-01-27T21:58:05.886Z,53.90
2023-01-27T22:00:32.762Z,54.10
2023-01-27T22:03:01.649Z,53.80
2023-01-27T22:05:30.042Z,54.25
2023-01-27T22:07:57.187Z,54.14
2023-01-27T22:10:26.902Z,53.88
2023-01-27T22:12:58.526Z,54.09
2023-01-27T22:15:28.690Z,54.08
2023-01-27T22:17:59.138Z,53.96
2023-01-27T22:20:26.995Z,53.69
2023-01-27T22:22:56.946Z,53.97
2023-01-27T22:25:27.144Z,54.03
2023-01-27T22:27:55.350Z,54.08
2023-01-27T22:30:22.157Z,53.93
2023-01-27T22:32:49.777Z,54.13
2023-01-27T22:35:18.297Z,54.12
2023-01-27T22:37:45.922Z,53.91
2023-01-27T22:40:13.555Z,54.38
2023-01-27T22:42:40.341Z,54.22
2023-01-27T22:45:11.023Z,53.87
2023-01-27T22:47:37.916Z,53.95
2023-01-27T22:50:04.995Z,54.17
2023-01-27T22:52:35.192Z,53.94
2023-01-27T22:55:02.611Z,54.20
2023-01-27T22:57:31.366Z,53.91
2023-01-27T22:59:58.855Z,53.91
2023-01-27T23:02:27.980Z,54.03
2023-01-27T23:04:54.895Z,54.30
2023-01-27T23:07:21.831Z,54.11
2023-01-27T23:09:48.627Z,54.11
2023-01-27T23:12:15.613Z,54.53
2023-01-27T23:14:42.480Z,54.15
2023-01-27T23:17:09.287Z,54.26
2023-01-27T23:19:36.055Z,54.61
2023-01-27T23:22:02.855Z,54.37
2023-01-27T23:24:29.652Z,54.63
2023-01-27T23:26:56.329Z,54.63
2023-01-27T23:29:25.527Z,54.25
2023-01-27T23:31:53.043Z,54.54
2023-01-27T23:34:20.120Z,54.24
2023-01-27T23:36:47.728Z,54.14
2023-01-27T23:39:15.897Z,54.14
2023-01-27T23:41:42.667Z,54.15
2023-01-27T23:44:11.470Z,54.37
2023-01-27T23:46:38.404Z,54.35
2023-01-27T23:49:05.286Z,54.23
2023-01-27T23:51:32.237Z,53.94
2023-01-27T23:53:59.489Z,53.73
2023-01-27T23:56:26.322Z,54.11
2023-01-27T23:58:53.288Z,53.99
